Portada
METAR-TAF:

METAR-TAF

Aeroports :

Okayama, Japó

latitud: 34-45N, longitud: 133-51E, altitud: 241 m

Observació

L'informe es va fer fa 6 hores i 6 minuts, a les 12:00 UTC
Vent calma
Temperatura 25°C
Humitat 83%
Pressió 1006 hPa
Visibilitat 10 km o més
Escasses núvols a una alçada de 2000 ft
Cel ennuvolat a una alçada de 3000 ft
Cel ennuvolat a una alçada de 4000 ft

METAR: RJOB 121200Z 00000KT 9999 FEW020 BKN030 BKN040 25/22 Q1006

Hora: 03:06 (18:06 UTC)

Pronòstic

L'informe es va fer fa 1 hora i 0 minuts, a les 17:06 UTC
Pronòstic vàlid del 12 a les 18 UTC al 14 a les 00 UTC
Vent 5 kt del Est/Nord-Est
Visibilitat 10 km o més
Escasses núvols a una alçada de 1500 ft
Núvols disperses a una alçada de 3500 ft
Evolucionant progressivament
l' 13 a les 09 UTC al 13 a les 12 UTC
Vent 4 kt del Oest/Nord-Oest

TAF: RJOB 121706Z 1218/1400 06005KT 9999 FEW015 SCT035 BECMG 1309/1312 30004KT

Observacions i pronòstics meteorològics de més de 4000 aeroports (METAR i TAF).

Les estacions disponibles són els punts grocs i vermells al mapa.

Posi el ratolí al punt desitjat per veure el nom de l'estació.

Feu clic per veure les observacions i els pronòstics meteorològics.

Per canviar el mapa: feu clic els botons verds amb una creu de color negre per apropar; al botó verd amb un guió per allunyar la imatge; o en les fletxes verdes per a mapes adjacents.


METAR-TAF: